Time;durP1;ratioP1;P1;durP2;ratioP2;P2;SDS_P1;SDS_P2;PMS_P1;PMS_P2;Temp;Humidity;BMP_temperature;BMP_pressure;BME280_temperature;BME280_humidity;BME280_pressure;Samples;Min_cycle;Max_cycle;Signal;HPM_P1;HPM_P2
2022/11/08 00:01:36;;;;;;;2.38;1.40;;;13.20;99.90;;;;;;5095164;28;20086;-76
2022/11/08 00:04:10;;;;;;;1.30;1.20;;;13.20;99.90;;;;;;5095177;28;20020;-76
2022/11/08 00:14:50;;;;;;;2.33;1.10;;;13.10;99.90;;;;;;5094914;28;20036;-76
2022/11/08 00:17:17;;;;;;;1.70;1.05;;;13.10;99.90;;;;;;5093083;28;20397;-76
2022/11/08 00:19:45;;;;;;;1.42;1.02;;;13.00;99.90;;;;;;5094706;28;20050;-76
2022/11/08 00:22:11;;;;;;;1.42;1.10;;;13.00;99.90;;;;;;5094328;28;20153;-76
2022/11/08 00:24:37;;;;;;;1.05;0.95;;;13.00;99.90;;;;;;5093667;28;20055;-76
2022/11/08 00:27:08;;;;;;;1.63;1.10;;;13.00;99.90;;;;;;5094507;28;20103;-76
2022/11/08 00:29:35;;;;;;;1.35;1.00;;;13.10;99.90;;;;;;5094350;28;20028;-76
2022/11/08 00:32:02;;;;;;;1.38;1.02;;;13.00;99.90;;;;;;5094283;28;20047;-76
2022/11/08 00:34:28;;;;;;;2.30;1.10;;;12.90;99.90;;;;;;5094636;28;20020;-76
2022/11/08 00:36:54;;;;;;;1.17;1.08;;;12.90;99.90;;;;;;5094053;28;20454;-76
2022/11/08 00:39:19;;;;;;;2.55;1.20;;;13.00;99.90;;;;;;5093887;28;20409;-76
2022/11/08 00:41:45;;;;;;;1.65;1.20;;;13.10;99.90;;;;;;5102054;28;20077;-76
2022/11/08 00:44:11;;;;;;;1.80;0.98;;;13.30;99.90;;;;;;5094845;28;20032;-76
2022/11/08 00:46:37;;;;;;;1.67;1.30;;;13.40;99.90;;;;;;5094035;28;20473;-76
2022/11/08 00:49:04;;;;;;;1.25;1.02;;;13.30;99.90;;;;;;5093909;28;20032;-76
2022/11/08 00:51:30;;;;;;;1.63;0.98;;;13.40;99.90;;;;;;5094076;28;20048;-76
2022/11/08 00:53:57;;;;;;;0.90;0.90;;;13.40;99.90;;;;;;5092653;28;20027;-76
2022/11/08 00:56:23;;;;;;;1.60;1.10;;;13.40;99.90;;;;;;5093652;28;20020;-76
2022/11/08 00:58:49;;;;;;;3.47;1.27;;;13.50;99.90;;;;;;5093823;28;20034;-76
2022/11/08 01:01:18;;;;;;;2.45;1.13;;;13.50;99.90;;;;;;5093686;28;20078;-76
2022/11/08 01:03:44;;;;;;;2.55;1.00;;;13.60;99.90;;;;;;5094017;28;20055;-77
2022/11/08 01:06:11;;;;;;;1.80;1.00;;;13.70;99.90;;;;;;5093532;28;20572;-77
2022/11/08 01:08:37;;;;;;;2.38;1.30;;;13.60;99.90;;;;;;5091806;28;20028;-76
2022/11/08 01:11:06;;;;;;;1.55;1.15;;;13.60;99.90;;;;;;5092928;28;20028;-76
2022/11/08 01:13:33;;;;;;;1.88;1.00;;;13.70;99.90;;;;;;5093615;28;20027;-76
2022/11/08 01:16:06;;;;;;;1.42;1.05;;;13.80;99.90;;;;;;5092024;28;20019;-76
2022/11/08 01:18:32;;;;;;;3.28;1.50;;;13.70;99.90;;;;;;5091930;28;20031;-76
2022/11/08 01:20:58;;;;;;;2.55;1.20;;;13.80;99.90;;;;;;5093457;28;20089;-76
2022/11/08 01:23:23;;;;;;;1.75;1.15;;;13.80;99.90;;;;;;5091471;28;20051;-76
2022/11/08 01:25:49;;;;;;;2.00;1.10;;;13.70;99.90;;;;;;5093136;28;20024;-76
2022/11/08 01:28:15;;;;;;;2.08;1.20;;;13.80;99.90;;;;;;5093061;28;20028;-76
2022/11/08 01:30:43;;;;;;;3.85;1.70;;;13.80;99.90;;;;;;5092878;28;20492;-76
2022/11/08 01:33:10;;;;;;;4.85;1.98;;;13.80;99.90;;;;;;5093191;28;20047;-76
2022/11/08 01:35:36;;;;;;;2.63;1.45;;;13.70;99.90;;;;;;5093317;28;20501;-76
2022/11/08 01:38:03;;;;;;;2.53;1.55;;;13.70;99.90;;;;;;5091343;28;20024;-76
2022/11/08 01:40:29;;;;;;;2.50;1.48;;;13.70;99.90;;;;;;5092976;28;20024;-76
2022/11/08 01:42:56;;;;;;;2.80;1.23;;;13.60;99.90;;;;;;5102685;28;20481;-76
2022/11/08 01:45:59;;;;;;;1.65;1.00;;;13.60;99.90;;;;;;5091482;28;20027;-76
2022/11/08 01:48:27;;;;;;;2.90;1.33;;;13.60;99.90;;;;;;5092905;28;20055;-76
2022/11/08 01:50:55;;;;;;;1.48;1.25;;;13.70;99.90;;;;;;5092995;28;20071;-76
2022/11/08 01:53:21;;;;;;;2.17;1.20;;;13.70;99.90;;;;;;5092695;28;20048;-76
2022/11/08 01:55:47;;;;;;;2.25;1.30;;;13.60;99.90;;;;;;5092699;28;20028;-76
2022/11/08 01:58:18;;;;;;;2.17;1.27;;;13.60;99.90;;;;;;5092736;28;20092;-76
2022/11/08 02:00:44;;;;;;;1.60;1.20;;;13.50;99.90;;;;;;5092709;28;20107;-76
2022/11/08 02:03:13;;;;;;;1.85;1.10;;;13.40;99.90;;;;;;5092960;28;20461;-76
2022/11/08 02:05:39;;;;;;;2.25;1.42;;;13.50;99.90;;;;;;5092501;28;20062;-76
2022/11/08 02:08:08;;;;;;;2.83;1.50;;;13.40;99.90;;;;;;5092195;28;20519;-76
2022/11/08 02:10:37;;;;;;;1.40;1.23;;;13.30;99.90;;;;;;5092465;28;20028;-76
2022/11/08 02:13:06;;;;;;;1.05;0.93;;;13.30;99.90;;;;;;5092505;28;20165;-76
2022/11/08 02:15:32;;;;;;;1.85;1.20;;;13.20;99.90;;;;;;5092099;28;20039;-76
2022/11/08 02:17:58;;;;;;;1.75;1.10;;;13.20;99.90;;;;;;5092409;28;20020;-76
2022/11/08 02:20:23;;;;;;;1.75;1.30;;;13.10;99.90;;;;;;5092540;28;20390;-76
2022/11/08 02:23:10;;;;;;;2.20;1.13;;;13.10;99.90;;;;;;5092094;28;20030;-76
2022/11/08 02:25:36;;;;;;;1.88;0.95;;;13.10;99.90;;;;;;5092183;28;20115;-76
2022/11/08 02:28:02;;;;;;;2.67;1.25;;;12.90;99.90;;;;;;5092158;28;20177;-76
2022/11/08 02:30:32;;;;;;;2.33;1.70;;;12.90;99.90;;;;;;5092344;28;20016;-76
2022/11/08 02:32:58;;;;;;;1.95;1.08;;;12.90;99.90;;;;;;5092357;28;20043;-76
2022/11/08 02:35:25;;;;;;;1.52;0.93;;;12.90;99.90;;;;;;5092134;28;20086;-76
2022/11/08 02:37:51;;;;;;;3.20;1.20;;;12.80;99.90;;;;;;5091983;28;20470;-76
2022/11/08 02:40:18;;;;;;;2.28;1.13;;;12.60;99.90;;;;;;5090702;28;20036;-76
2022/11/08 02:42:43;;;;;;;1.00;0.93;;;12.60;99.90;;;;;;5100712;28;20066;-76
2022/11/08 02:45:09;;;;;;;1.80;1.10;;;12.60;99.90;;;;;;5092338;28;20031;-76
2022/11/08 02:47:35;;;;;;;2.50;1.20;;;12.50;99.90;;;;;;5092074;28;20016;-76
2022/11/08 02:50:01;;;;;;;2.90;1.10;;;12.40;99.90;;;;;;5091841;28;20024;-76
2022/11/08 02:52:26;;;;;;;1.08;0.98;;;12.40;99.90;;;;;;5092044;28;20578;-76
2022/11/08 02:54:52;;;;;;;1.63;0.90;;;12.40;99.90;;;;;;5092014;28;20063;-76
2022/11/08 02:57:18;;;;;;;3.15;1.20;;;12.30;99.90;;;;;;5090524;28;20497;-76
2022/11/08 02:59:43;;;;;;;3.22;1.00;;;12.30;99.90;;;;;;5092330;28;20401;-76
2022/11/08 03:02:09;;;;;;;1.38;1.02;;;12.30;99.90;;;;;;5091879;28;20020;-76
2022/11/08 03:04:35;;;;;;;1.30;0.90;;;12.30;99.90;;;;;;5091918;28;20111;-76
2022/11/08 03:07:00;;;;;;;1.38;0.82;;;12.40;99.90;;;;;;5091917;28;20485;-76
2022/11/08 03:09:26;;;;;;;1.13;1.02;;;12.40;99.90;;;;;;5091699;28;20112;-76
2022/11/08 03:11:52;;;;;;;1.38;1.10;;;12.40;99.90;;;;;;5091818;28;20070;-76
2022/11/08 03:14:18;;;;;;;1.17;1.05;;;12.40;99.90;;;;;;5092023;28;20035;-76
2022/11/08 03:16:44;;;;;;;2.22;1.42;;;12.40;99.90;;;;;;5090336;28;20020;-76
2022/11/08 03:19:10;;;;;;;1.60;1.08;;;12.30;99.90;;;;;;5095692;28;20508;-76
2022/11/08 03:21:37;;;;;;;1.33;1.00;;;12.30;99.90;;;;;;5095705;28;20020;-76
2022/11/08 03:24:04;;;;;;;0.82;0.82;;;12.20;99.90;;;;;;5093980;28;20055;-75
2022/11/08 03:26:31;;;;;;;0.68;0.60;;;12.00;99.90;;;;;;5095573;28;20020;-76
2022/11/08 03:28:57;;;;;;;1.00;0.90;;;12.10;99.90;;;;;;5095447;28;20043;-76
2022/11/08 03:31:22;;;;;;;1.15;1.10;;;12.00;99.90;;;;;;5095436;28;20020;-76
2022/11/08 03:33:48;;;;;;;2.00;1.00;;;11.90;99.90;;;;;;5095259;28;20154;-76
2022/11/08 03:36:14;;;;;;;2.72;1.25;;;11.90;99.90;;;;;;5095708;28;20474;-76
2022/11/08 03:38:40;;;;;;;1.20;1.10;;;11.90;99.90;;;;;;5095324;28;20077;-76
2022/11/08 03:41:06;;;;;;;0.90;0.90;;;11.90;99.90;;;;;;5097617;28;20439;-76
2022/11/08 03:43:31;;;;;;;1.10;0.80;;;11.90;99.90;;;;;;5101697;28;20035;-76
2022/11/08 03:45:57;;;;;;;2.30;1.52;;;11.90;99.90;;;;;;5093805;28;20110;-76
2022/11/08 03:48:22;;;;;;;0.85;0.82;;;12.00;99.90;;;;;;5093397;28;20486;-75
2022/11/08 03:50:50;;;;;;;1.48;1.00;;;12.00;99.90;;;;;;5093607;28;20574;-76
2022/11/08 03:53:16;;;;;;;0.98;0.88;;;12.00;99.90;;;;;;5093640;28;20115;-75
2022/11/08 03:55:42;;;;;;;2.63;1.05;;;12.00;99.90;;;;;;5094719;28;20044;-76
2022/11/08 03:58:07;;;;;;;1.17;0.90;;;12.00;99.90;;;;;;5094898;28;20043;-75
2022/11/08 04:00:33;;;;;;;1.08;0.82;;;12.10;99.90;;;;;;5095085;28;20035;-76
2022/11/08 04:03:01;;;;;;;0.95;0.95;;;12.10;99.90;;;;;;5094637;28;20095;-76
2022/11/08 04:05:27;;;;;;;0.93;0.93;;;12.00;99.90;;;;;;5094990;28;20063;-75
2022/11/08 04:07:53;;;;;;;3.25;1.05;;;12.00;99.90;;;;;;5094721;28;20049;-75
2022/11/08 04:10:19;;;;;;;1.05;0.80;;;11.90;99.90;;;;;;5094703;28;20021;-76
2022/11/08 04:15:30;;;;;;;1.33;0.80;;;11.90;99.90;;;;;;5094769;28;20069;-75
2022/11/08 04:23:31;;;;;;;0.90;0.90;;;11.80;99.90;;;;;;5094565;28;20055;-75
2022/11/08 04:25:59;;;;;;;1.27;0.80;;;11.90;99.90;;;;;;5094287;28;20520;-75
2022/11/08 04:28:26;;;;;;;0.90;0.80;;;11.90;99.90;;;;;;5093959;28;20020;-75
2022/11/08 04:30:57;;;;;;;1.63;1.00;;;12.00;99.90;;;;;;5094326;28;20049;-75
2022/11/08 04:33:23;;;;;;;2.15;0.82;;;12.00;99.90;;;;;;5094186;28;20031;-75
2022/11/08 04:35:50;;;;;;;1.95;1.13;;;12.00;99.90;;;;;;5094523;28;20028;-75
2022/11/08 04:38:16;;;;;;;1.92;1.00;;;12.00;99.90;;;;;;5094305;28;20049;-75
2022/11/08 04:40:41;;;;;;;2.20;1.00;;;12.00;99.90;;;;;;5092754;28;20089;-75
2022/11/08 04:43:07;;;;;;;1.15;1.00;;;12.10;99.90;;;;;;5102959;28;20536;-75
2022/11/08 04:45:33;;;;;;;1.48;1.20;;;12.00;99.90;;;;;;5092577;28;20485;-75
2022/11/08 04:47:58;;;;;;;1.40;0.80;;;12.00;99.90;;;;;;5093984;28;20020;-75
2022/11/08 04:50:24;;;;;;;0.98;0.80;;;12.00;99.90;;;;;;5093835;28;20440;-75
2022/11/08 04:52:51;;;;;;;1.73;1.02;;;12.00;99.90;;;;;;5092650;28;20017;-75
2022/11/08 04:55:18;;;;;;;1.75;1.08;;;12.00;99.90;;;;;;5093600;28;20024;-75
2022/11/08 04:57:44;;;;;;;1.52;0.93;;;11.90;99.90;;;;;;5093623;28;20016;-75
2022/11/08 05:00:10;;;;;;;1.27;1.10;;;11.90;99.90;;;;;;5093491;28;20094;-75
2022/11/08 05:02:36;;;;;;;1.67;1.10;;;11.90;99.90;;;;;;5093818;28;20024;-75
2022/11/08 05:05:01;;;;;;;2.25;1.10;;;11.90;99.90;;;;;;5092194;28;20568;-76
2022/11/08 05:07:30;;;;;;;0.90;0.90;;;11.90;99.90;;;;;;5092267;28;20443;-75
2022/11/08 05:09:56;;;;;;;2.35;1.00;;;11.90;99.90;;;;;;5093455;28;20030;-75
2022/11/08 05:12:22;;;;;;;0.95;0.85;;;11.80;99.90;;;;;;5093618;28;20444;-75
2022/11/08 05:14:48;;;;;;;1.60;0.80;;;11.90;99.90;;;;;;5093410;28;20023;-75
2022/11/08 05:17:13;;;;;;;3.10;1.00;;;11.90;99.90;;;;;;5093674;28;20028;-75
2022/11/08 05:25:08;;;;;;;1.23;0.98;;;11.70;99.90;;;;;;5093193;28;20075;-75
2022/11/08 05:27:34;;;;;;;0.82;0.82;;;11.70;99.90;;;;;;5093479;28;20028;-76
2022/11/08 05:30:00;;;;;;;1.02;0.90;;;11.60;99.90;;;;;;5091402;28;20032;-75
2022/11/08 05:32:26;;;;;;;1.58;1.25;;;11.60;99.90;;;;;;5093168;28;20023;-75
2022/11/08 05:34:51;;;;;;;0.70;0.70;;;11.70;99.90;;;;;;5091581;28;20084;-75
2022/11/08 05:37:17;;;;;;;1.88;0.90;;;11.70;99.90;;;;;;5091773;28;20494;-75
2022/11/08 05:39:43;;;;;;;1.30;0.80;;;11.80;99.90;;;;;;5092225;28;20389;-75
2022/11/08 05:42:09;;;;;;;1.27;1.00;;;12.00;99.90;;;;;;5104137;28;20038;-75
2022/11/08 05:44:35;;;;;;;2.28;1.02;;;12.00;99.90;;;;;;5090056;27;20039;-75
2022/11/08 05:47:01;;;;;;;1.02;1.00;;;12.00;99.90;;;;;;5093206;28;20032;-75
2022/11/08 05:49:26;;;;;;;1.20;1.10;;;12.10;99.90;;;;;;5092776;28;20492;-75
2022/11/08 05:51:52;;;;;;;1.77;1.17;;;12.10;99.90;;;;;;5092955;28;20103;-75
2022/11/08 05:54:18;;;;;;;1.10;0.80;;;12.10;99.90;;;;;;5092634;28;20024;-75
2022/11/08 05:56:43;;;;;;;1.25;1.00;;;12.00;99.90;;;;;;5092280;28;20032;-75
2022/11/08 05:59:09;;;;;;;0.90;0.90;;;12.00;99.90;;;;;;5091206;28;20024;-75
2022/11/08 06:01:35;;;;;;;2.25;1.17;;;12.10;99.90;;;;;;5092775;28;20043;-75
2022/11/08 06:04:01;;;;;;;1.75;1.08;;;12.10;99.90;;;;;;5092557;28;20035;-75
2022/11/08 06:06:27;;;;;;;1.63;1.02;;;12.10;99.90;;;;;;5091188;28;20028;-75
2022/11/08 06:08:53;;;;;;;0.80;0.80;;;12.20;99.90;;;;;;5092559;28;20123;-75
2022/11/08 06:11:24;;;;;;;0.80;0.80;;;12.20;99.90;;;;;;5092042;28;20027;-75
2022/11/08 06:13:51;;;;;;;;;;;12.20;99.90;;;;;;5092876;28;20035;-75
2022/11/08 06:16:18;;;;;;;1.40;1.15;;;12.30;99.90;;;;;;5092730;28;19904;-75
2022/11/08 06:18:44;;;;;;;2.75;1.42;;;12.40;99.90;;;;;;5091064;28;20035;-75
2022/11/08 06:21:16;;;;;;;3.35;1.63;;;12.50;99.90;;;;;;5091985;28;20098;-75
2022/11/08 06:23:42;;;;;;;2.58;1.33;;;12.80;99.90;;;;;;5092362;28;20058;-75
2022/11/08 06:26:08;;;;;;;1.60;1.48;;;12.70;99.90;;;;;;5092253;28;20028;-75
2022/11/08 06:28:34;;;;;;;3.47;1.42;;;12.70;99.90;;;;;;5092125;28;20032;-75
2022/11/08 06:31:01;;;;;;;1.95;1.27;;;12.70;99.90;;;;;;5092461;28;20027;-75
2022/11/08 06:33:27;;;;;;;1.50;1.40;;;12.80;99.90;;;;;;5090805;28;20043;-75
2022/11/08 06:35:54;;;;;;;2.33;1.52;;;12.80;99.90;;;;;;5090809;28;20496;-75
2022/11/08 06:38:20;;;;;;;3.17;1.35;;;12.70;99.90;;;;;;5090702;28;20028;-75
2022/11/08 06:40:45;;;;;;;3.78;1.73;;;12.70;99.90;;;;;;5092042;28;20085;-75
2022/11/08 06:43:11;;;;;;;3.15;1.58;;;12.80;99.90;;;;;;5100783;28;20039;-75
2022/11/08 06:45:37;;;;;;;5.18;1.40;;;12.80;99.90;;;;;;5092290;28;20489;-75
2022/11/08 06:48:04;;;;;;;2.35;1.83;;;12.80;99.90;;;;;;5092041;28;20509;-75
2022/11/08 06:50:31;;;;;;;5.28;1.60;;;12.80;99.90;;;;;;5090730;28;20024;-75
2022/11/08 06:53:03;;;;;;;2.42;1.58;;;12.80;99.90;;;;;;5094720;28;20024;-75
2022/11/08 06:55:29;;;;;;;2.67;1.42;;;12.70;99.90;;;;;;5095885;28;20089;-75
2022/11/08 06:57:54;;;;;;;3.22;1.80;;;12.90;99.90;;;;;;5096082;28;20031;-75
2022/11/08 07:00:21;;;;;;;2.35;1.48;;;12.90;99.90;;;;;;5096217;28;20032;-74
2022/11/08 07:02:54;;;;;;;5.70;1.98;;;12.80;99.90;;;;;;5096030;28;20521;-75
2022/11/08 07:05:20;;;;;;;2.15;1.70;;;13.00;99.90;;;;;;5094635;28;20058;-75
2022/11/08 07:07:50;;;;;;;3.65;1.58;;;12.90;99.90;;;;;;5096036;28;20098;-75
2022/11/08 07:10:20;;;;;;;3.40;1.50;;;13.00;99.90;;;;;;5095524;28;20030;-75
2022/11/08 07:12:46;;;;;;;3.25;1.50;;;13.00;99.90;;;;;;5095531;28;20032;-74
2022/11/08 07:15:13;;;;;;;4.00;1.50;;;12.90;99.90;;;;;;5095873;28;20020;-74
2022/11/08 07:17:39;;;;;;;2.88;1.60;;;13.00;99.90;;;;;;5095922;28;20038;-75
2022/11/08 07:20:05;;;;;;;2.45;1.70;;;12.90;99.90;;;;;;5095712;28;20024;-75
2022/11/08 07:22:31;;;;;;;5.85;1.80;;;13.00;99.90;;;;;;5095549;28;20031;-75
2022/11/08 07:24:56;;;;;;;2.55;1.77;;;13.30;99.90;;;;;;5095064;28;20048;-75
2022/11/08 07:27:22;;;;;;;3.92;1.73;;;13.30;99.90;;;;;;5095552;28;20074;-74
2022/11/08 07:29:48;;;;;;;3.75;1.42;;;13.40;99.90;;;;;;5094099;28;20490;-75
2022/11/08 07:32:13;;;;;;;4.80;2.25;;;13.50;99.90;;;;;;5095374;28;20032;-75
2022/11/08 07:34:39;;;;;;;2.83;1.67;;;13.50;99.90;;;;;;5093901;28;20604;-75
2022/11/08 07:37:05;;;;;;;2.55;1.85;;;13.70;99.90;;;;;;5094034;28;20091;-75
2022/11/08 07:39:30;;;;;;;2.63;1.58;;;13.70;99.90;;;;;;5093753;28;20028;-75
2022/11/08 07:41:56;;;;;;;3.47;1.70;;;13.90;99.90;;;;;;5104431;28;20023;-75
2022/11/08 07:44:22;;;;;;;2.53;1.50;;;14.00;99.90;;;;;;5094424;28;20170;-75
2022/11/08 07:46:47;;;;;;;2.70;1.52;;;14.20;99.90;;;;;;5093689;28;20085;-75
2022/11/08 07:49:13;;;;;;;1.80;1.38;;;14.30;99.90;;;;;;5095013;28;20024;-75
2022/11/08 07:51:39;;;;;;;2.83;1.50;;;14.40;99.90;;;;;;5095333;28;20504;-75
2022/11/08 07:54:04;;;;;;;1.88;1.50;;;14.70;99.90;;;;;;5093323;28;20027;-75
2022/11/08 07:56:30;;;;;;;5.68;1.88;;;14.90;99.90;;;;;;5093402;28;20506;-75
2022/11/08 07:58:55;;;;;;;3.30;1.77;;;15.00;99.90;;;;;;5094968;28;20028;-75
2022/11/08 08:01:21;;;;;;;4.00;1.67;;;15.00;99.90;;;;;;5093510;28;20122;-75
2022/11/08 08:03:47;;;;;;;4.55;1.58;;;15.20;99.90;;;;;;5094575;28;20069;-75
2022/11/08 08:06:12;;;;;;;3.17;2.03;;;15.20;99.90;;;;;;5094746;28;20477;-76
2022/11/08 08:08:38;;;;;;;2.67;1.52;;;15.50;99.90;;;;;;5093053;28;20505;-76
2022/11/08 08:11:04;;;;;;;1.92;1.40;;;15.60;99.90;;;;;;5094283;28;20045;-76
2022/11/08 08:13:30;;;;;;;3.72;1.73;;;15.70;99.90;;;;;;5093500;28;20405;-76
2022/11/08 08:15:58;;;;;;;1.80;1.50;;;15.80;99.90;;;;;;5094763;28;20027;-76
2022/11/08 08:18:24;;;;;;;3.55;1.50;;;16.10;99.90;;;;;;5093325;28;20492;-76
2022/11/08 08:20:49;;;;;;;3.50;1.50;;;16.20;99.90;;;;;;5094545;28;20042;-76
2022/11/08 08:23:15;;;;;;;2.95;1.70;;;16.30;99.90;;;;;;5094045;28;20556;-76
2022/11/08 08:25:41;;;;;;;2.97;1.67;;;16.40;99.90;;;;;;5094380;28;20541;-76
2022/11/08 08:28:08;;;;;;;2.33;1.40;;;16.60;99.90;;;;;;5094198;28;20501;-76
2022/11/08 08:30:33;;;;;;;2.30;1.58;;;16.50;99.90;;;;;;5094288;28;20035;-76
2022/11/08 08:33:06;;;;;;;2.70;1.42;;;16.50;99.90;;;;;;5094483;28;20020;-77
2022/11/08 08:35:33;;;;;;;6.78;2.92;;;16.50;99.90;;;;;;5094388;28;20050;-76
2022/11/08 08:38:00;;;;;;;5.20;2.67;;;16.60;99.90;;;;;;5094281;28;20020;-76
2022/11/08 08:40:27;;;;;;;3.83;2.00;;;16.90;99.90;;;;;;5094171;28;20020;-76
2022/11/08 08:42:53;;;;;;;3.90;2.13;;;17.60;99.90;;;;;;5101766;28;20028;-76
2022/11/08 08:45:18;;;;;;;3.47;2.25;;;17.90;99.90;;;;;;5093983;28;20035;-76
2022/11/08 08:47:49;;;;;;;6.00;2.00;;;17.50;99.90;;;;;;5094259;28;20024;-77
2022/11/08 08:50:14;;;;;;;4.82;2.33;;;17.40;99.90;;;;;;5093870;28;20028;-77
2022/11/08 08:52:40;;;;;;;2.30;1.70;;;17.70;99.90;;;;;;5093887;28;20526;-77
2022/11/08 08:55:06;;;;;;;5.72;2.50;;;17.60;99.90;;;;;;5092330;28;20089;-76
2022/11/08 08:57:32;;;;;;;3.20;1.98;;;17.50;99.90;;;;;;5092410;28;20074;-77
2022/11/08 08:59:58;;;;;;;5.88;2.15;;;17.50;99.90;;;;;;5093869;28;20062;-77
2022/11/08 09:02:24;;;;;;;6.10;2.20;;;17.50;99.90;;;;;;5093660;28;20051;-77
2022/11/08 09:04:50;;;;;;;4.82;2.13;;;17.70;99.90;;;;;;5093802;28;20503;-77
2022/11/08 09:07:15;;;;;;;3.95;2.47;;;17.90;99.90;;;;;;5093575;28;20036;-77
2022/11/08 09:09:41;;;;;;;5.85;1.95;;;17.70;99.90;;;;;;5093349;28;20114;-77
2022/11/08 09:12:06;;;;;;;3.35;2.20;;;17.60;99.90;;;;;;5093110;28;20024;-77
2022/11/08 09:14:32;;;;;;;4.18;2.17;;;17.80;99.90;;;;;;5092773;28;20478;-77
2022/11/08 09:16:58;;;;;;;3.38;2.03;;;17.90;99.90;;;;;;5093521;28;20020;-77
2022/11/08 09:19:24;;;;;;;3.53;1.95;;;17.70;99.90;;;;;;5093377;28;20024;-77
2022/11/08 09:21:49;;;;;;;3.15;2.38;;;17.50;99.90;;;;;;5092937;28;20493;-76
2022/11/08 09:24:16;;;;;;;2.65;1.90;;;17.50;99.90;;;;;;5093196;28;20043;-77
2022/11/08 09:26:41;;;;;;;4.35;2.00;;;17.50;99.90;;;;;;5093084;28;20031;-77
2022/11/08 09:29:07;;;;;;;6.53;2.17;;;17.60;99.90;;;;;;5093327;28;20027;-77
2022/11/08 09:31:33;;;;;;;2.85;1.88;;;17.70;99.90;;;;;;5091712;28;20481;-77
2022/11/08 09:33:58;;;;;;;3.42;2.03;;;17.70;99.90;;;;;;5093126;28;20091;-77
2022/11/08 09:36:24;;;;;;;3.25;1.90;;;17.70;99.90;;;;;;5093117;28;20358;-77
2022/11/08 09:38:50;;;;;;;2.55;1.85;;;17.80;99.90;;;;;;5093095;28;20477;-77
2022/11/08 09:41:50;;;;;;;4.53;1.85;;;18.00;99.90;;;;;;5096285;28;20404;-77
2022/11/08 09:44:22;;;;;;;5.22;2.17;;;18.10;99.90;;;;;;5093346;28;20030;-77
2022/11/08 09:46:50;;;;;;;;;;;18.10;99.90;;;;;;5093231;28;20039;-77
2022/11/08 09:49:22;;;;;;;2.13;1.70;;;18.50;99.90;;;;;;5091500;28;19914;-77
2022/11/08 09:51:49;;;;;;;4.13;1.83;;;18.40;99.90;;;;;;5092682;28;20032;-77
2022/11/08 09:54:41;;;;;;;3.97;1.60;;;18.40;99.90;;;;;;5092900;28;20031;-77
2022/11/08 09:57:24;;;;;;;2.58;1.65;;;18.40;99.90;;;;;;5085551;28;20032;-77
2022/11/08 09:59:57;;;;;;;2.00;1.60;;;18.30;99.90;;;;;;5092840;28;20123;-77
2022/11/08 10:02:23;;;;;;;2.97;1.80;;;18.30;99.90;;;;;;5092718;28;20047;-77
2022/11/08 10:05:14;;;;;;;6.15;2.15;;;18.20;99.90;;;;;;5092603;28;20055;-77
2022/11/08 10:07:48;;;;;;;3.97;2.00;;;18.20;99.90;;;;;;5092910;28;20024;-77
2022/11/08 10:10:16;;;;;;;3.35;1.75;;;18.20;99.90;;;;;;5092265;28;20036;-77
2022/11/08 10:13:25;;;;;;;4.68;2.03;;;18.20;99.90;;;;;;5092108;28;20020;-78
2022/11/08 10:16:01;;;;;;;3.05;1.88;;;18.10;99.90;;;;;;5080427;28;20036;-77
2022/11/08 10:18:35;;;;;;;2.00;1.80;;;18.10;99.90;;;;;;5072584;28;20017;-77
2022/11/08 10:21:19;;;;;;;3.80;1.70;;;18.10;99.90;;;;;;5072102;28;20102;-77
2022/11/08 10:24:02;;;;;;;2.85;1.75;;;18.30;99.90;;;;;;5070716;28;20049;-77
2022/11/08 10:26:44;;;;;;;1.77;1.40;;;18.50;99.90;;;;;;5071809;28;20112;-77
2022/11/08 10:29:20;;;;;;;4.15;2.05;;;18.70;99.90;;;;;;5072300;28;20108;-77
2022/11/08 10:31:50;;;;;;;3.75;2.15;;;18.90;99.90;;;;;;5072195;28;20036;-77
2022/11/08 10:34:31;;;;;;;4.45;2.00;;;18.90;99.90;;;;;;5070478;28;20027;-78
2022/11/08 10:37:02;;;;;;;2.53;1.48;;;18.70;99.90;;;;;;5070383;28;20056;-78
2022/11/08 10:39:41;;;;;;;2.35;1.52;;;18.80;99.90;;;;;;5070600;28;20571;-77
2022/11/08 10:42:19;;;;;;;4.38;1.75;;;18.90;99.90;;;;;;5093536;28;20050;-77
2022/11/08 10:44:45;;;;;;;3.05;1.70;;;19.10;99.90;;;;;;5091282;28;20028;-78
2022/11/08 10:47:23;;;;;;;3.72;1.95;;;19.10;99.90;;;;;;5090565;28;20505;-77
2022/11/08 10:49:49;;;;;;;2.70;1.88;;;19.00;99.90;;;;;;5092137;28;20024;-77
2022/11/08 10:52:39;;;;;;;2.88;1.45;;;19.10;99.90;;;;;;5090763;28;20473;-77
2022/11/08 10:55:07;;;;;;;4.07;2.00;;;19.20;99.90;;;;;;5092341;28;20024;-77
2022/11/08 10:57:41;;;;;;;4.10;1.80;;;19.60;99.90;;;;;;5090556;28;20055;-77
2022/11/08 11:00:22;;;;;;;3.08;2.22;;;19.60;99.90;;;;;;5092146;28;20537;-77
2022/11/08 11:02:57;;;;;;;3.75;1.73;;;19.30;99.90;;;;;;5091845;28;20031;-78
2022/11/08 11:05:26;;;;;;;2.92;2.05;;;19.20;99.90;;;;;;5092170;28;20032;-77
2022/11/08 11:08:14;;;;;;;3.05;1.80;;;19.00;99.90;;;;;;5090734;28;20028;-77
2022/11/08 11:10:41;;;;;;;2.88;1.85;;;19.10;99.90;;;;;;5091677;28;20074;-77
2022/11/08 11:13:33;;;;;;;4.82;1.92;;;19.20;99.90;;;;;;5091827;28;20489;-77
2022/11/08 11:16:03;;;;;;;2.67;1.40;;;19.30;99.90;;;;;;5069595;28;20075;-77
2022/11/08 11:18:33;;;;;;;2.70;1.73;;;19.30;99.90;;;;;;5071635;28;20050;-77
2022/11/08 11:21:13;;;;;;;3.33;2.20;;;19.30;99.90;;;;;;5070367;28;20028;-78
2022/11/08 11:23:42;;;;;;;2.72;1.80;;;19.30;99.90;;;;;;5070237;28;20056;-78
2022/11/08 11:26:17;;;;;;;1.95;1.75;;;19.20;99.90;;;;;;5071278;28;20032;-77
2022/11/08 11:29:17;;;;;;;3.10;2.00;;;19.20;99.90;;;;;;5069935;28;20115;-78
2022/11/08 11:31:46;;;;;;;3.38;1.95;;;19.30;99.90;;;;;;5009358;28;20030;-78
2022/11/08 11:34:17;;;;;;;1.73;1.35;;;19.20;99.90;;;;;;4993179;28;20065;-77
2022/11/08 11:36:58;;;;;;;3.22;2.15;;;19.30;99.90;;;;;;4992989;28;20045;-77
2022/11/08 11:39:50;;;;;;;2.80;1.67;;;19.20;99.90;;;;;;4995574;28;20053;-78
2022/11/08 11:42:45;;;;;;;2.70;1.52;;;19.20;99.90;;;;;;5023842;28;20033;-78
2022/11/08 11:45:20;;;;;;;4.18;1.73;;;19.20;99.90;;;;;;4985551;28;20037;-77
2022/11/08 11:47:52;;;;;;;4.30;1.73;;;19.20;99.90;;;;;;4976662;28;20030;-78
2022/11/08 11:50:38;;;;;;;4.05;2.00;;;19.20;99.90;;;;;;5004557;28;20030;-78
2022/11/08 11:53:26;;;;;;;2.20;1.65;;;19.30;99.90;;;;;;5012816;28;20037;-78
2022/11/08 11:56:00;;;;;;;2.10;1.45;;;19.50;99.90;;;;;;5012546;28;20046;-78
2022/11/08 11:58:42;;;;;;;1.90;1.50;;;19.60;99.90;;;;;;5012558;28;20026;-78
2022/11/08 12:01:30;;;;;;;3.95;1.80;;;19.70;99.90;;;;;;4995802;28;20034;-78
2022/11/08 12:04:16;;;;;;;2.78;1.50;;;19.80;99.90;;;;;;5012676;28;20033;-78
2022/11/08 12:07:10;;;;;;;2.35;1.60;;;19.80;99.90;;;;;;5012397;28;20026;-78
2022/11/08 12:09:42;;;;;;;5.05;1.95;;;19.80;99.90;;;;;;5012381;28;20092;-77
2022/11/08 12:12:16;;;;;;;;;;;19.60;99.90;;;;;;5012326;28;20048;-77
2022/11/08 12:15:06;;;;;;;4.63;2.25;;;19.50;99.90;;;;;;5022742;28;20397;-77
2022/11/08 12:17:59;;;;;;;5.88;2.30;;;19.50;99.90;;;;;;5032009;28;20037;-77
2022/11/08 12:21:01;;;;;;;6.32;2.15;;;19.40;99.90;;;;;;5032052;28;20080;-77
2022/11/08 12:23:46;;;;;;;4.07;2.50;;;19.40;99.90;;;;;;5031742;28;20044;-77
2022/11/08 12:26:30;;;;;;;4.32;2.10;;;19.40;99.90;;;;;;5031773;28;20128;-77
2022/11/08 12:29:25;;;;;;;3.13;2.15;;;19.50;99.90;;;;;;5014750;28;20026;-77
2022/11/08 12:31:57;;;;;;;4.57;2.20;;;19.70;99.90;;;;;;5031760;28;20033;-77
2022/11/08 12:34:51;;;;;;;3.92;2.40;;;19.90;99.90;;;;;;5031836;28;20038;-77
2022/11/08 12:37:48;;;;;;;3.60;1.85;;;20.00;99.90;;;;;;5031699;28;20151;-77
2022/11/08 12:40:40;;;;;;;3.28;1.88;;;19.90;99.90;;;;;;5014810;28;20033;-77
2022/11/08 12:43:36;;;;;;;3.95;2.28;;;19.80;99.90;;;;;;5025983;28;20125;-77
2022/11/08 12:46:05;;;;;;;3.22;1.90;;;19.80;99.90;;;;;;5046037;28;20029;-77
2022/11/08 12:48:47;;;;;;;4.35;2.03;;;19.70;99.90;;;;;;5072472;28;20028;-77
2022/11/08 12:51:54;;;;;;;4.22;2.40;;;19.60;99.90;;;;;;5091906;28;20110;-77
2022/11/08 12:54:22;;;;;;;3.97;2.22;;;19.50;99.90;;;;;;5031486;28;20149;-77
2022/11/08 12:56:51;;;;;;;5.57;2.22;;;19.50;99.90;;;;;;5014549;28;20030;-77
2022/11/08 12:59:35;;;;;;;2.72;1.80;;;19.50;99.90;;;;;;5031021;28;20029;-77
2022/11/08 13:02:03;;;;;;;3.22;1.90;;;19.60;99.90;;;;;;5031295;28;20041;-77
2022/11/08 13:04:44;;;;;;;3.67;1.88;;;19.70;99.90;;;;;;5031540;28;20033;-77
2022/11/08 13:07:29;;;;;;;5.70;2.15;;;19.80;99.90;;;;;;5031375;28;20021;-77
2022/11/08 13:10:10;;;;;;;1.92;1.70;;;19.80;99.90;;;;;;5031180;28;20129;-77
2022/11/08 13:12:44;;;;;;;3.17;2.10;;;19.80;99.90;;;;;;5030763;28;20029;-77
2022/11/08 13:15:16;;;;;;;2.08;1.50;;;19.70;99.90;;;;;;5030775;28;20059;-77
2022/11/08 13:18:05;;;;;;;7.45;2.42;;;19.60;99.90;;;;;;5030974;28;20025;-77
2022/11/08 13:20:42;;;;;;;4.30;2.30;;;19.60;99.90;;;;;;5030918;28;20053;-77
2022/11/08 13:23:41;;;;;;;2.83;1.83;;;19.60;99.90;;;;;;5030661;28;20033;-77
2022/11/08 13:26:19;;;;;;;2.28;1.60;;;19.50;99.90;;;;;;5009603;28;20115;-77